Maysville, Georgia
Current Conditions -  °F | °C
As of 5:35 PM on Monday 22 Dec 2014 (Local Time) from K19A Reporting Station
Moderate Rain Moderate Rain  
Wind Chill: 40°   Ceiling: 400
Heat Index: 43°   Visibility: 5mi
Dew Point: 43°   Wind: 5mph
Humidity: 100%   Direction: 90°E
Pressure: 29.94"   Gusts: NA
Location:  34.25°N, 83.56°W
Report Text: K19A 222235Z AUTO 09004KT 5SM RA OVC004 06/06 A2994 RMK AO2 LTG DSNT SW
Loading
Personal Weather Stations






























Interactive Weather Map New forecast layout! Learn more

10-Day Weather Forecast

Advertisements
Track Severe Weather on mobile